createdAt,value
2024-05-09T00:00:02.960Z,12.4
2024-05-09T00:01:01.692Z,12.4
2024-05-09T00:02:01.502Z,12.4
2024-05-09T00:03:02.350Z,12.5
2024-05-09T00:04:02.803Z,12.5
2024-05-09T00:05:02.040Z,12.4
2024-05-09T00:06:02.227Z,12.4
2024-05-09T00:07:01.652Z,12.4
2024-05-09T00:08:01.593Z,12.4
2024-05-09T00:09:02.028Z,12.1
2024-05-09T00:10:02.119Z,12.1
2024-05-09T00:11:01.475Z,12
2024-05-09T00:12:02.871Z,11.9
2024-05-09T00:13:02.140Z,12.2
2024-05-09T00:14:02.033Z,12
2024-05-09T00:15:01.915Z,11.8
2024-05-09T00:16:01.873Z,11.8
2024-05-09T00:17:01.298Z,11.7
2024-05-09T00:18:02.425Z,11.6
2024-05-09T00:19:01.740Z,11.9
2024-05-09T00:20:02.257Z,11.9
2024-05-09T00:21:01.594Z,12.1
2024-05-09T00:22:01.880Z,12.2
2024-05-09T00:23:01.994Z,12.1
2024-05-09T00:24:01.828Z,12.2
2024-05-09T00:25:01.805Z,12
2024-05-09T00:26:01.840Z,12.1
2024-05-09T00:27:01.804Z,12
2024-05-09T00:28:01.740Z,12
2024-05-09T00:29:02.344Z,11.9
2024-05-09T00:30:01.343Z,11.9
2024-05-09T00:31:03.062Z,11.9
2024-05-09T00:32:02.354Z,11.9
2024-05-09T00:33:02.506Z,12
2024-05-09T00:34:02.152Z,12
2024-05-09T00:35:01.778Z,12
2024-05-09T00:36:01.738Z,12
2024-05-09T00:37:02.016Z,11.9
2024-05-09T00:38:02.039Z,11.9
2024-05-09T00:39:02.150Z,12
2024-05-09T00:40:01.971Z,11.9
2024-05-09T00:41:01.847Z,11.9
2024-05-09T00:42:02.199Z,11.8
2024-05-09T00:43:02.340Z,11.8
2024-05-09T00:44:02.042Z,11.8
2024-05-09T00:45:02.153Z,11.8
2024-05-09T00:46:02.211Z,11.7
2024-05-09T00:47:02.360Z,11.8
2024-05-09T00:48:02.546Z,11.7
2024-05-09T00:49:01.563Z,11.7
2024-05-09T00:50:03.086Z,11.8
2024-05-09T00:51:01.550Z,11.8
2024-05-09T00:52:01.664Z,11.6
2024-05-09T00:53:01.475Z,11.7
2024-05-09T00:54:01.617Z,11.6
2024-05-09T00:55:01.541Z,11.6
2024-05-09T00:56:02.746Z,11.6
2024-05-09T00:57:01.613Z,11.6
2024-05-09T00:58:01.471Z,11.6
2024-05-09T00:59:01.380Z,11.5
2024-05-09T01:00:02.105Z,11.6
2024-05-09T01:01:02.464Z,11.4
2024-05-09T01:02:02.168Z,11.4
2024-05-09T01:03:03.292Z,11.5
2024-05-09T01:04:01.734Z,11.5
2024-05-09T01:05:02.419Z,11.4
2024-05-09T01:06:01.695Z,11.4
2024-05-09T01:07:02.312Z,11.3
2024-05-09T01:08:02.064Z,11.2
2024-05-09T01:09:01.762Z,11.1
2024-05-09T01:10:01.354Z,11.3
2024-05-09T01:11:01.915Z,11.2
2024-05-09T01:12:02.106Z,11
2024-05-09T01:13:01.636Z,11.2
2024-05-09T01:14:02.287Z,11.1
2024-05-09T01:15:02.034Z,11.1
2024-05-09T01:16:02.218Z,11
2024-05-09T01:17:01.874Z,11
2024-05-09T01:18:02.426Z,11
2024-05-09T01:19:01.872Z,11.1
2024-05-09T01:20:01.774Z,11.1
2024-05-09T01:21:02.142Z,11.1
2024-05-09T01:22:03.552Z,11.1
2024-05-09T01:23:01.413Z,11.1
2024-05-09T01:24:02.401Z,10.9
2024-05-09T01:25:01.223Z,10.9
2024-05-09T01:26:02.229Z,10.8
2024-05-09T01:27:02.039Z,10.8
2024-05-09T01:28:02.298Z,10.9
2024-05-09T01:29:02.110Z,10.8
2024-05-09T01:30:03.014Z,10.8
2024-05-09T01:31:01.364Z,10.9
2024-05-09T01:32:01.503Z,11
2024-05-09T01:33:02.954Z,10.9
2024-05-09T01:34:02.382Z,10.9
2024-05-09T01:35:02.033Z,11
2024-05-09T01:36:02.042Z,11
2024-05-09T01:37:02.185Z,11
2024-05-09T01:38:02.261Z,11
2024-05-09T01:39:02.036Z,11.1
2024-05-09T01:40:01.710Z,11.1
2024-05-09T01:41:02.426Z,11
2024-05-09T01:42:01.326Z,10.9
2024-05-09T01:43:01.835Z,10.9
2024-05-09T01:44:01.615Z,10.8
2024-05-09T01:45:02.423Z,10.9
2024-05-09T01:46:02.173Z,11
2024-05-09T01:47:02.198Z,10.9
2024-05-09T01:48:02.823Z,10.9
2024-05-09T01:49:02.298Z,10.9
2024-05-09T01:50:02.130Z,11
2024-05-09T01:51:01.463Z,10.9
2024-05-09T01:52:02.147Z,10.9
2024-05-09T01:53:01.930Z,10.8
2024-05-09T01:54:01.744Z,10.7
2024-05-09T01:55:04.576Z,10.7
2024-05-09T01:56:01.667Z,10.6
2024-05-09T01:57:01.850Z,10.5
2024-05-09T01:58:01.527Z,10.5
2024-05-09T01:59:01.712Z,10.5
2024-05-09T02:00:01.851Z,10.4
2024-05-09T02:01:01.944Z,10.3
2024-05-09T02:02:01.558Z,10.2
2024-05-09T02:03:02.181Z,10.2
2024-05-09T02:04:01.894Z,10.2
2024-05-09T02:05:02.162Z,10.2
2024-05-09T02:06:01.663Z,10.1
2024-05-09T02:07:01.883Z,10.1
2024-05-09T02:08:01.493Z,10.3
2024-05-09T02:09:01.890Z,10.3
2024-05-09T02:10:01.569Z,10.4
2024-05-09T02:11:01.453Z,10.3
2024-05-09T02:12:02.025Z,10.2
2024-05-09T02:13:01.318Z,10.2
2024-05-09T02:14:02.752Z,10.2
2024-05-09T02:15:02.103Z,10.2
2024-05-09T02:16:02.437Z,10.2
2024-05-09T02:17:02.314Z,10.1
2024-05-09T02:18:02.550Z,10.2
2024-05-09T02:19:01.946Z,10.2
2024-05-09T02:20:02.143Z,9.7
2024-05-09T02:21:01.445Z,9.8
2024-05-09T02:22:02.234Z,10
2024-05-09T02:23:02.116Z,9.9
2024-05-09T02:24:02.447Z,9.8
2024-05-09T02:25:02.228Z,9.8
2024-05-09T02:26:02.466Z,9.7
2024-05-09T02:27:01.287Z,9.8
2024-05-09T02:28:02.484Z,9.9
2024-05-09T02:29:01.534Z,9.8
2024-05-09T02:30:01.466Z,9.8
2024-05-09T02:31:01.454Z,9.7
2024-05-09T02:32:01.728Z,9.7
2024-05-09T02:33:02.304Z,9.8
2024-05-09T02:34:01.911Z,9.8
2024-05-09T02:35:01.700Z,9.9
2024-05-09T02:36:02.049Z,9.9
2024-05-09T02:37:01.946Z,9.9
2024-05-09T02:38:02.198Z,9.9
2024-05-09T02:39:02.629Z,9.9
2024-05-09T02:40:01.349Z,9.9
2024-05-09T02:41:01.902Z,9.9
2024-05-09T02:42:01.765Z,9.9
2024-05-09T02:43:01.787Z,10
2024-05-09T02:44:01.603Z,9.8
2024-05-09T02:45:01.487Z,9.8
2024-05-09T02:46:02.768Z,9.8
2024-05-09T02:47:02.248Z,9.7
2024-05-09T02:48:02.841Z,9.7
2024-05-09T02:49:01.670Z,9.6
2024-05-09T02:50:02.378Z,9.7
2024-05-09T02:51:01.482Z,9.7
2024-05-09T02:52:01.563Z,9.7
2024-05-09T02:53:01.471Z,9.5
2024-05-09T02:54:01.766Z,9.5
2024-05-09T02:55:01.386Z,9.2
2024-05-09T02:56:02.266Z,9.5
2024-05-09T02:57:02.229Z,9.4
2024-05-09T02:58:02.375Z,9.3
2024-05-09T02:59:02.167Z,9.4
2024-05-09T03:00:02.166Z,9.5
2024-05-09T03:01:01.407Z,9.5
2024-05-09T03:02:02.067Z,9.6
2024-05-09T03:03:02.693Z,9.4
2024-05-09T03:04:01.976Z,9.4
2024-05-09T03:05:01.249Z,9.3
2024-05-09T03:06:02.713Z,9.4
2024-05-09T03:07:01.564Z,9.4
2024-05-09T03:08:02.236Z,9.3
2024-05-09T03:09:02.101Z,9.3
2024-05-09T03:10:02.012Z,9.4
2024-05-09T03:11:01.855Z,9.3
2024-05-09T03:12:01.804Z,9.4
2024-05-09T03:13:02.081Z,9.4
2024-05-09T03:14:01.918Z,9.3
2024-05-09T03:15:01.802Z,9.4
2024-05-09T03:16:01.657Z,9.5
2024-05-09T03:17:01.719Z,9.5
2024-05-09T03:18:02.294Z,9.4
2024-05-09T03:19:01.351Z,9.4
2024-05-09T03:20:01.951Z,9.4
2024-05-09T03:21:01.384Z,9.4
2024-05-09T03:22:01.787Z,9.4
2024-05-09T03:23:01.497Z,9.3
2024-05-09T03:24:01.635Z,9.4
2024-05-09T03:25:01.447Z,9.4
2024-05-09T03:26:02.397Z,9.5
2024-05-09T03:27:02.207Z,9.4
2024-05-09T03:28:02.315Z,9.4
2024-05-09T03:29:02.094Z,9.3
2024-05-09T03:30:02.041Z,9.4
2024-05-09T03:31:01.925Z,9.5
2024-05-09T03:32:03.537Z,9.4
2024-05-09T03:33:01.550Z,9.3
2024-05-09T03:34:03.143Z,9.4
2024-05-09T03:35:01.548Z,9.3
2024-05-09T03:36:04.629Z,9.2
2024-05-09T03:37:01.659Z,9.2
2024-05-09T03:38:01.504Z,9.2
2024-05-09T03:39:01.340Z,9.3
2024-05-09T03:40:02.844Z,9.3
2024-05-09T03:41:01.767Z,9.4
2024-05-09T03:42:01.595Z,9.3
2024-05-09T03:43:02.064Z,9.4
2024-05-09T03:44:01.790Z,9.5
2024-05-09T03:45:01.787Z,9.5
2024-05-09T03:46:01.607Z,9.3
2024-05-09T03:47:01.682Z,9.3
2024-05-09T03:48:02.380Z,9.3
2024-05-09T03:49:01.794Z,9.5
2024-05-09T03:50:02.326Z,9.4
2024-05-09T03:51:01.332Z,9.2
2024-05-09T03:52:02.397Z,9.2
2024-05-09T03:53:02.332Z,9.1
2024-05-09T03:54:02.400Z,9
2024-05-09T03:55:01.266Z,9
2024-05-09T03:56:02.463Z,9
2024-05-09T03:57:02.280Z,9
2024-05-09T03:58:02.214Z,9.1
2024-05-09T03:59:02.010Z,9
2024-05-09T04:00:05.479Z,9.1
2024-05-09T04:01:02.243Z,9.3
2024-05-09T04:02:02.080Z,9.2
2024-05-09T04:03:02.740Z,9.2
2024-05-09T04:04:01.956Z,9.3
2024-05-09T04:05:02.461Z,9.1
2024-05-09T04:06:01.283Z,9.3
2024-05-09T04:07:01.542Z,9.2
2024-05-09T04:08:02.713Z,9.3
2024-05-09T04:09:01.770Z,9.3
2024-05-09T04:10:01.570Z,9.5
2024-05-09T04:11:01.721Z,9.4
2024-05-09T04:12:02.002Z,9.3
2024-05-09T04:13:03.008Z,9.4
2024-05-09T04:14:02.082Z,9.6
2024-05-09T04:15:02.266Z,9.5
2024-05-09T04:16:01.917Z,9.6
2024-05-09T04:17:01.821Z,9.6
2024-05-09T04:18:02.505Z,9.7
2024-05-09T04:19:01.379Z,9.6
2024-05-09T04:20:01.649Z,9.7
2024-05-09T04:21:01.780Z,9.7
2024-05-09T04:22:02.245Z,9.8
2024-05-09T04:23:01.827Z,9.7
2024-05-09T04:24:01.820Z,9.7
2024-05-09T04:25:01.942Z,9.7
2024-05-09T04:26:02.194Z,9.6
2024-05-09T04:27:02.040Z,9.7
2024-05-09T04:28:02.261Z,9.7
2024-05-09T04:29:02.018Z,9.8
2024-05-09T04:30:02.001Z,9.7
2024-05-09T04:31:02.873Z,9.9
2024-05-09T04:32:01.784Z,10
2024-05-09T04:33:02.286Z,10
2024-05-09T04:34:01.886Z,10
2024-05-09T04:35:02.178Z,9.9
2024-05-09T04:36:02.892Z,10
2024-05-09T04:37:01.668Z,9.9
2024-05-09T04:38:01.568Z,10.1
2024-05-09T04:39:01.517Z,10.1
2024-05-09T04:40:02.362Z,10
2024-05-09T04:41:01.871Z,10
2024-05-09T04:42:01.961Z,10.2
2024-05-09T04:43:01.857Z,10.3
2024-05-09T04:44:01.869Z,10.2
2024-05-09T04:45:02.004Z,10.2
2024-05-09T04:46:01.770Z,10.1
2024-05-09T04:47:01.763Z,10.2
2024-05-09T04:48:02.537Z,10.3
2024-05-09T04:49:01.698Z,10.4
2024-05-09T04:50:01.816Z,10.3
2024-05-09T04:51:02.669Z,10.6
2024-05-09T04:52:01.913Z,10.7
2024-05-09T04:53:02.076Z,10.6
2024-05-09T04:54:01.878Z,10.4
2024-05-09T04:55:01.890Z,10.7
2024-05-09T04:56:01.837Z,10.7
2024-05-09T04:57:01.586Z,10.7
2024-05-09T04:58:02.441Z,10.9
2024-05-09T04:59:02.372Z,10.9
2024-05-09T05:00:07.089Z,10.9
2024-05-09T05:01:02.118Z,10.8
2024-05-09T05:02:02.287Z,10.9
2024-05-09T05:03:02.631Z,11.1
2024-05-09T05:04:02.113Z,11
2024-05-09T05:05:02.465Z,11.1
2024-05-09T05:06:01.758Z,11.2
2024-05-09T05:07:02.743Z,11.4
2024-05-09T05:08:01.915Z,11.4
2024-05-09T05:09:02.346Z,11.4
2024-05-09T05:10:02.491Z,11.3
2024-05-09T05:11:01.958Z,11.3
2024-05-09T05:12:02.214Z,11.5
2024-05-09T05:13:01.308Z,11.4
2024-05-09T05:14:02.140Z,11.5
2024-05-09T05:15:02.081Z,11.5
2024-05-09T05:16:01.915Z,11.7
2024-05-09T05:17:02.114Z,11.8
2024-05-09T05:18:02.254Z,12
2024-05-09T05:19:01.555Z,11.9
2024-05-09T05:20:02.518Z,11.6
2024-05-09T05:21:02.320Z,11.9
2024-05-09T05:22:02.060Z,12.2
2024-05-09T05:23:02.133Z,12.2
2024-05-09T05:24:01.979Z,12.3
2024-05-09T05:25:02.147Z,12
2024-05-09T05:26:01.957Z,12
2024-05-09T05:27:01.326Z,12.1
2024-05-09T05:28:02.655Z,12.2
2024-05-09T05:29:01.409Z,12.4
2024-05-09T05:30:01.356Z,12.5
2024-05-09T05:31:01.309Z,12.6
2024-05-09T05:32:01.794Z,12.4
2024-05-09T05:33:02.531Z,12.4
2024-05-09T05:34:01.727Z,12.7
2024-05-09T05:35:01.824Z,12.8
2024-05-09T05:36:01.908Z,12.9
2024-05-09T05:37:01.753Z,12.8
2024-05-09T05:38:01.724Z,12.9
2024-05-09T05:39:02.004Z,12.9
2024-05-09T05:40:02.469Z,13
2024-05-09T05:41:01.766Z,12.9
2024-05-09T05:42:01.698Z,13
2024-05-09T05:43:01.692Z,13
2024-05-09T05:44:01.536Z,13.3
2024-05-09T05:45:01.409Z,13.3
2024-05-09T05:46:02.532Z,13.3
2024-05-09T05:47:02.149Z,13.4
2024-05-09T05:48:02.091Z,13.3
2024-05-09T05:49:01.540Z,13.4
2024-05-09T05:50:01.779Z,13.5
2024-05-09T05:51:04.221Z,13.4
2024-05-09T05:52:01.570Z,13.2
2024-05-09T05:53:02.511Z,13.5
2024-05-09T05:54:01.690Z,13.7
2024-05-09T05:55:02.150Z,13.8
2024-05-09T05:56:01.913Z,13.8
2024-05-09T05:57:01.967Z,13.4
2024-05-09T05:58:02.747Z,13.5
2024-05-09T05:59:01.593Z,13.3
2024-05-09T06:00:05.597Z,13.5
2024-05-09T06:01:01.374Z,13.4
2024-05-09T06:02:01.706Z,13.5
2024-05-09T06:03:02.782Z,13.7
2024-05-09T06:04:01.883Z,13.7
2024-05-09T06:05:02.585Z,13.4
2024-05-09T06:06:01.677Z,13.5
2024-05-09T06:07:01.834Z,13.7
2024-05-09T06:08:01.582Z,14
2024-05-09T06:09:01.610Z,13.9
2024-05-09T06:10:01.321Z,14.1
2024-05-09T06:11:01.847Z,14.2
2024-05-09T06:12:02.106Z,14.2
2024-05-09T06:13:01.954Z,14.3
2024-05-09T06:14:01.873Z,14.4
2024-05-09T06:15:01.726Z,14.3
2024-05-09T06:16:01.497Z,14.4
2024-05-09T06:17:01.714Z,14.5
2024-05-09T06:18:02.159Z,14.6
2024-05-09T06:19:01.538Z,14.6
2024-05-09T06:20:01.903Z,14.8
2024-05-09T06:21:01.983Z,14.7
2024-05-09T06:22:02.097Z,14.6
2024-05-09T06:23:02.352Z,14.7
2024-05-09T06:24:03.185Z,14.7
2024-05-09T06:25:02.245Z,14.8
2024-05-09T06:26:02.039Z,14.9
2024-05-09T06:27:01.944Z,14.8
2024-05-09T06:28:01.377Z,14.9
2024-05-09T06:29:01.579Z,14.9
2024-05-09T06:30:01.408Z,14.9
2024-05-09T06:31:01.644Z,14.7
2024-05-09T06:32:02.496Z,14.8
2024-05-09T06:33:01.591Z,14.8
2024-05-09T06:34:02.355Z,14.9
2024-05-09T06:35:01.618Z,15.2
2024-05-09T06:36:01.997Z,15.2
2024-05-09T06:37:01.642Z,15.1
2024-05-09T06:38:02.316Z,15.2
2024-05-09T06:39:02.000Z,15.3
2024-05-09T06:40:01.832Z,15.2
2024-05-09T06:41:01.944Z,15.2
2024-05-09T06:42:02.113Z,15.3
2024-05-09T06:43:01.858Z,15.5
2024-05-09T06:44:01.752Z,15.5
2024-05-09T06:45:01.870Z,15.4
2024-05-09T06:46:01.553Z,15.5
2024-05-09T06:47:01.367Z,15.4
2024-05-09T06:48:01.518Z,15.5
2024-05-09T06:49:01.867Z,15.6
2024-05-09T06:50:01.398Z,15.8
2024-05-09T06:51:01.676Z,15.8
2024-05-09T06:52:01.506Z,15.9
2024-05-09T06:53:02.461Z,15.9
2024-05-09T06:54:01.506Z,15.9
2024-05-09T06:55:01.661Z,15.9
2024-05-09T06:56:01.377Z,15.8
2024-05-09T06:57:01.628Z,15.8
2024-05-09T06:58:01.346Z,15.9
2024-05-09T06:59:01.615Z,15.9
2024-05-09T07:00:03.824Z,16
2024-05-09T07:01:01.693Z,15.9
2024-05-09T07:02:01.337Z,16
2024-05-09T07:03:05.339Z,16.1
2024-05-09T07:04:02.096Z,16.1
2024-05-09T07:05:01.538Z,15.9
2024-05-09T07:06:02.438Z,15.9
2024-05-09T07:07:01.781Z,15.8
2024-05-09T07:08:01.534Z,16
2024-05-09T07:09:01.441Z,16.1
2024-05-09T07:10:02.460Z,16.2
2024-05-09T07:11:01.727Z,16.1
2024-05-09T07:12:02.039Z,16
2024-05-09T07:13:02.613Z,16.2
2024-05-09T07:14:01.336Z,16.2
2024-05-09T07:15:01.519Z,16.2
2024-05-09T07:16:02.413Z,16.2
2024-05-09T07:17:02.320Z,16.3
2024-05-09T07:18:01.945Z,16.4
2024-05-09T07:19:01.519Z,16.2
2024-05-09T07:20:02.011Z,16.3
2024-05-09T07:21:02.281Z,16.4
2024-05-09T07:22:02.104Z,16.4
2024-05-09T07:23:02.442Z,16.3
2024-05-09T07:24:01.863Z,16.6
2024-05-09T07:25:01.966Z,16.6
2024-05-09T07:26:01.693Z,16.8
2024-05-09T07:27:01.983Z,16.8
2024-05-09T07:28:02.189Z,16.7
2024-05-09T07:29:02.006Z,16.8
2024-05-09T07:30:02.204Z,16.9
2024-05-09T07:31:01.682Z,17
2024-05-09T07:32:01.786Z,17.2
2024-05-09T07:33:02.750Z,17.2
2024-05-09T07:34:01.921Z,17.4
2024-05-09T07:35:02.254Z,17.1
2024-05-09T07:36:02.401Z,17.3
2024-05-09T07:37:02.194Z,17.4
2024-05-09T07:38:02.123Z,17.5
2024-05-09T07:39:02.041Z,17.5
2024-05-09T07:40:01.795Z,17.6
2024-05-09T07:41:02.081Z,17.7
2024-05-09T07:42:01.965Z,17.7
2024-05-09T07:43:01.280Z,17.5
2024-05-09T07:44:02.146Z,17.6
2024-05-09T07:45:14.519Z,17.7
2024-05-09T07:46:28.522Z,17.9
2024-05-09T07:47:37.048Z,17.4
2024-05-09T07:50:00.021Z,17.8
2024-05-09T07:50:55.961Z,17.9
2024-05-09T07:52:22.906Z,17.9
2024-05-09T07:52:57.773Z,17.9
2024-05-09T07:53:29.565Z,18
2024-05-09T07:54:02.074Z,18
2024-05-09T07:55:02.738Z,18.1
2024-05-09T07:56:02.221Z,18.1
2024-05-09T07:57:01.802Z,18.2
2024-05-09T07:58:02.147Z,18.4
2024-05-09T07:59:02.042Z,18.3
2024-05-09T08:00:01.927Z,18.5
2024-05-09T08:01:01.798Z,18.6
2024-05-09T08:02:01.542Z,18.4
2024-05-09T08:03:02.096Z,18.3
2024-05-09T08:04:02.114Z,18.5
2024-05-09T08:05:01.375Z,18
2024-05-09T08:06:01.729Z,17.7
2024-05-09T08:07:01.751Z,18.3
2024-05-09T08:08:01.638Z,18.4
2024-05-09T08:09:05.253Z,18.7
2024-05-09T08:10:01.487Z,18.7
2024-05-09T08:11:01.467Z,18.9
2024-05-09T08:12:02.298Z,18.9
2024-05-09T08:13:02.338Z,18.8
2024-05-09T08:14:02.199Z,18.9
2024-05-09T08:15:02.216Z,18.8
2024-05-09T08:16:02.110Z,18.9
2024-05-09T08:17:01.481Z,19.1
2024-05-09T08:18:02.631Z,19.1
2024-05-09T08:19:01.941Z,19.2
2024-05-09T08:20:03.661Z,19.4
2024-05-09T08:21:01.578Z,19.6
2024-05-09T08:22:01.414Z,19.6
2024-05-09T08:23:01.315Z,19.2
2024-05-09T08:24:02.397Z,19.3
2024-05-09T08:25:01.263Z,19.4
2024-05-09T08:26:02.208Z,19.3
2024-05-09T08:27:02.105Z,19.3
2024-05-09T08:28:02.001Z,19.2
2024-05-09T08:29:01.801Z,19.5
2024-05-09T08:30:01.728Z,19.7
2024-05-09T08:31:04.303Z,19.6
2024-05-09T08:32:02.825Z,19.8
2024-05-09T08:33:01.722Z,19.8
2024-05-09T08:34:02.087Z,19.2
2024-05-09T08:35:01.328Z,19.4
2024-05-09T08:36:02.604Z,19.9
2024-05-09T08:37:06.037Z,19.6
2024-05-09T08:38:01.987Z,19.8
2024-05-09T08:39:01.530Z,19.7
2024-05-09T08:40:03.208Z,19.7
2024-05-09T08:41:01.419Z,19.6
2024-05-09T08:42:02.276Z,20.1
2024-05-09T08:43:02.175Z,19.8
2024-05-09T08:44:01.655Z,20
2024-05-09T08:45:01.470Z,20.1
2024-05-09T08:46:02.681Z,20.1
2024-05-09T08:47:01.496Z,20.5
2024-05-09T08:48:02.306Z,20.3
2024-05-09T08:49:01.544Z,20.3
2024-05-09T08:50:02.258Z,20
2024-05-09T08:51:01.521Z,20.3
2024-05-09T08:52:02.287Z,20.6
2024-05-09T08:53:02.270Z,20.7
2024-05-09T08:54:02.393Z,20.8
2024-05-09T08:55:02.078Z,20.8
2024-05-09T08:56:02.194Z,20.7
2024-05-09T08:57:02.014Z,21
2024-05-09T08:58:01.763Z,21.1
2024-05-09T08:59:01.793Z,21.1
2024-05-09T09:00:02.055Z,21.1
2024-05-09T09:01:02.284Z,21.1
2024-05-09T09:02:01.929Z,20.9
2024-05-09T09:03:02.253Z,21
2024-05-09T09:04:02.285Z,21.2
2024-05-09T09:05:01.503Z,21.1
2024-05-09T09:06:01.787Z,21.2
2024-05-09T09:07:03.426Z,21
2024-05-09T09:08:01.701Z,21.4
2024-05-09T09:09:02.178Z,21.5
2024-05-09T09:10:01.914Z,21.3
2024-05-09T09:11:01.777Z,21.4
2024-05-09T09:12:01.688Z,21
2024-05-09T09:13:01.611Z,21.1
2024-05-09T09:14:01.527Z,21.3
2024-05-09T09:15:01.381Z,21.5
2024-05-09T09:16:02.333Z,21.3
2024-05-09T09:17:02.170Z,21.1
2024-05-09T09:18:02.141Z,21.2
2024-05-09T09:19:02.419Z,21.3
2024-05-09T09:20:01.745Z,21.5
2024-05-09T09:21:02.415Z,21.7
2024-05-09T09:22:02.296Z,21.5
2024-05-09T09:23:02.688Z,21.7
2024-05-09T09:24:01.479Z,21.7
2024-05-09T09:25:01.723Z,21.7
2024-05-09T09:26:01.833Z,21.7
2024-05-09T09:27:01.785Z,21.6
2024-05-09T09:28:01.626Z,21.9
2024-05-09T09:29:01.502Z,22.1
2024-05-09T09:30:02.278Z,21.8
2024-05-09T09:31:02.022Z,21.7
2024-05-09T09:32:02.169Z,21.9
2024-05-09T09:33:02.467Z,22
2024-05-09T09:34:01.779Z,22
2024-05-09T09:35:02.280Z,21.8
2024-05-09T09:36:02.190Z,22.1
2024-05-09T09:37:02.320Z,22.3
2024-05-09T09:38:02.277Z,22.5
2024-05-09T09:39:01.764Z,22.8
2024-05-09T09:40:01.497Z,23
2024-05-09T09:41:01.752Z,22.8
2024-05-09T09:42:02.064Z,22.3
2024-05-09T09:43:02.166Z,22.4
2024-05-09T09:44:02.070Z,22.9
2024-05-09T09:45:04.726Z,22.8
2024-05-09T09:46:01.733Z,23
2024-05-09T09:47:02.164Z,23.4
2024-05-09T09:48:02.095Z,23.3
2024-05-09T09:49:02.617Z,23.5
2024-05-09T09:50:02.254Z,23.3
2024-05-09T09:51:02.069Z,23.4
2024-05-09T09:52:01.867Z,22.5
2024-05-09T09:53:01.843Z,23
2024-05-09T09:54:01.705Z,23.2
2024-05-09T09:55:02.135Z,23
2024-05-09T09:56:02.083Z,23
2024-05-09T09:57:01.612Z,23.1
2024-05-09T09:58:01.758Z,23
2024-05-09T09:59:01.679Z,22.7
2024-05-09T10:00:05.507Z,22.3
2024-05-09T10:01:01.886Z,22.9
2024-05-09T10:02:01.570Z,23.5
2024-05-09T10:03:02.158Z,23.6
2024-05-09T10:04:02.540Z,23.5
2024-05-09T10:05:01.968Z,23.5
2024-05-09T10:06:02.230Z,23.6
2024-05-09T10:07:02.198Z,23.3
2024-05-09T10:08:02.752Z,23.5
2024-05-09T10:09:01.445Z,23.9
2024-05-09T10:10:02.715Z,24.2
2024-05-09T10:11:01.508Z,23.8
2024-05-09T10:12:01.769Z,23.6
2024-05-09T10:13:01.816Z,23.9
2024-05-09T10:14:02.062Z,23.8
2024-05-09T10:15:02.317Z,23.3
2024-05-09T10:16:02.025Z,23.7
2024-05-09T10:17:01.531Z,23.4
2024-05-09T10:18:02.468Z,24
2024-05-09T10:19:01.966Z,24.3
2024-05-09T10:20:02.510Z,24.2
2024-05-09T10:21:01.537Z,24.3
2024-05-09T10:22:02.370Z,23.1
2024-05-09T10:23:02.275Z,23.1
2024-05-09T10:24:02.094Z,24
2024-05-09T10:25:04.369Z,23.9
2024-05-09T10:26:01.410Z,23.6
2024-05-09T10:27:01.624Z,23.1
2024-05-09T10:28:02.606Z,23.7
2024-05-09T10:29:01.534Z,24.1
2024-05-09T10:30:05.202Z,23.5
2024-05-09T10:31:01.807Z,23.6
2024-05-09T10:32:01.721Z,24.2
2024-05-09T10:33:01.859Z,24
2024-05-09T10:34:02.256Z,24.2
2024-05-09T10:35:01.791Z,24.2
2024-05-09T10:36:02.290Z,24.2
2024-05-09T10:37:03.481Z,24.4
2024-05-09T10:38:02.069Z,24.7
2024-05-09T10:39:02.217Z,25
2024-05-09T10:40:02.061Z,25.2
2024-05-09T10:41:02.030Z,24.6
2024-05-09T10:42:02.604Z,25.1
2024-05-09T10:43:03.359Z,25.1
2024-05-09T10:44:02.189Z,24.9
2024-05-09T10:45:02.332Z,25.1
2024-05-09T10:46:02.109Z,25.2
2024-05-09T10:47:01.870Z,24.8
2024-05-09T10:48:02.017Z,25.1
2024-05-09T10:49:04.342Z,24.6
2024-05-09T10:50:01.824Z,25.3
2024-05-09T10:51:01.924Z,25.2
2024-05-09T10:52:01.672Z,25.4
2024-05-09T10:53:01.766Z,25.1
2024-05-09T10:54:01.627Z,25.5
2024-05-09T10:55:03.800Z,25.7
2024-05-09T10:56:01.881Z,25.3
2024-05-09T10:57:02.163Z,25.3
2024-05-09T10:58:01.828Z,25.6
2024-05-09T10:59:01.981Z,25.2
2024-05-09T11:00:03.108Z,25.3
2024-05-09T11:01:04.478Z,25.3
2024-05-09T11:02:01.399Z,25.4
2024-05-09T11:03:01.559Z,25.5
2024-05-09T11:04:01.686Z,25.4
2024-05-09T11:05:02.416Z,25.1
2024-05-09T11:06:01.847Z,25.2
2024-05-09T11:07:04.662Z,25.4
2024-05-09T11:08:01.346Z,25.8
2024-05-09T11:09:01.602Z,25.6
2024-05-09T11:10:01.339Z,25.8
2024-05-09T11:11:01.743Z,26
2024-05-09T11:12:01.560Z,25.4
2024-05-09T11:13:01.680Z,25.8
2024-05-09T11:14:01.653Z,25.9
2024-05-09T11:15:02.330Z,26
2024-05-09T11:16:02.127Z,25.9
2024-05-09T11:17:01.470Z,26.1
2024-05-09T11:18:02.406Z,25.1
2024-05-09T11:19:01.541Z,25.1
2024-05-09T11:20:02.060Z,25.6
2024-05-09T11:21:02.224Z,25.8
2024-05-09T11:22:02.336Z,26
2024-05-09T11:23:01.324Z,25.3
2024-05-09T11:24:02.478Z,25
2024-05-09T11:25:02.235Z,25.4
2024-05-09T11:26:02.919Z,25.7
2024-05-09T11:27:01.695Z,25.5
2024-05-09T11:28:01.601Z,25.4
2024-05-09T11:29:01.631Z,25.2
2024-05-09T11:30:01.593Z,24.9
2024-05-09T11:31:01.419Z,24.6
2024-05-09T11:32:01.764Z,24.8
2024-05-09T11:33:02.442Z,24.8
2024-05-09T11:34:01.335Z,24.9
2024-05-09T11:35:01.328Z,24.4
2024-05-09T11:36:02.068Z,24.3
2024-05-09T11:37:02.272Z,23.2
2024-05-09T11:38:02.220Z,23
2024-05-09T11:39:02.113Z,23
2024-05-09T11:40:02.044Z,23.5
2024-05-09T11:41:01.478Z,23.5
2024-05-09T11:42:02.673Z,23.3
2024-05-09T11:43:01.726Z,23.1
2024-05-09T11:44:01.867Z,22.9
2024-05-09T11:45:01.753Z,22.6
2024-05-09T11:46:01.479Z,23.1
2024-05-09T11:47:01.390Z,23.4
2024-05-09T11:48:02.493Z,23.7
2024-05-09T11:49:02.173Z,24
2024-05-09T11:50:03.314Z,24.3
2024-05-09T11:51:02.222Z,24.3
2024-05-09T11:52:02.077Z,24.5
2024-05-09T11:53:01.977Z,24.2
2024-05-09T11:54:01.907Z,23.7
2024-05-09T11:55:02.081Z,23.4
2024-05-09T11:56:02.034Z,23.4
2024-05-09T11:57:01.341Z,24.4
2024-05-09T11:58:02.284Z,24.8
2024-05-09T11:59:02.216Z,24.8
2024-05-09T12:00:04.239Z,25
2024-05-09T12:01:02.466Z,25.1
2024-05-09T12:02:02.225Z,25.3
2024-05-09T12:03:01.486Z,25.2
2024-05-09T12:04:01.697Z,24.6
2024-05-09T12:05:01.716Z,24.9
2024-05-09T12:06:02.124Z,25.3
2024-05-09T12:07:01.910Z,25.4
2024-05-09T12:08:01.764Z,25
2024-05-09T12:09:02.235Z,25.7
2024-05-09T12:10:02.068Z,26.1
2024-05-09T12:11:01.910Z,25.7
2024-05-09T12:12:02.194Z,25.6
2024-05-09T12:13:04.093Z,24.6
2024-05-09T12:14:01.500Z,25.7
2024-05-09T12:15:01.960Z,25.8
2024-05-09T12:16:02.226Z,26.2
2024-05-09T12:17:01.510Z,26.2
2024-05-09T12:18:02.931Z,26.1
2024-05-09T12:19:01.877Z,26.2
2024-05-09T12:20:02.161Z,26.3
2024-05-09T12:21:01.381Z,26.4
2024-05-09T12:22:02.536Z,26.3
2024-05-09T12:23:01.440Z,26.7
2024-05-09T12:24:02.585Z,26.6
2024-05-09T12:25:02.312Z,26.5
2024-05-09T12:26:02.133Z,26.8
2024-05-09T12:27:02.112Z,26.8
2024-05-09T12:28:02.464Z,26.2
2024-05-09T12:29:01.500Z,26.4
2024-05-09T12:30:02.503Z,26.9
2024-05-09T12:32:01.937Z,27
2024-05-09T12:33:01.808Z,27.2
2024-05-09T12:34:02.011Z,27.4
2024-05-09T12:35:02.786Z,27
2024-05-09T12:36:01.539Z,27.2
2024-05-09T12:37:02.013Z,26.5
2024-05-09T12:38:01.959Z,26.8
2024-05-09T12:39:01.973Z,26.9
2024-05-09T12:40:02.301Z,26.9
2024-05-09T12:41:02.405Z,26.9
2024-05-09T12:42:02.198Z,26.9
2024-05-09T12:43:02.534Z,27.2
2024-05-09T12:44:01.451Z,27
2024-05-09T12:45:02.104Z,26.5
2024-05-09T12:46:02.511Z,26.8
2024-05-09T12:47:01.380Z,26.8
2024-05-09T12:48:02.236Z,27.3
2024-05-09T12:49:02.488Z,27.4
2024-05-09T12:50:02.919Z,27
2024-05-09T12:51:02.110Z,26.8
2024-05-09T12:52:01.971Z,26.9
2024-05-09T12:53:02.316Z,27.1
2024-05-09T12:54:01.808Z,27
2024-05-09T12:55:02.147Z,26.9
2024-05-09T12:56:03.207Z,27.3
2024-05-09T12:57:01.646Z,27.2
2024-05-09T12:58:01.494Z,27.3
2024-05-09T12:59:01.401Z,26.7
2024-05-09T13:00:04.228Z,26.4
2024-05-09T13:01:02.080Z,25.2
2024-05-09T13:02:02.130Z,26.3
2024-05-09T13:03:01.818Z,26.8
2024-05-09T13:04:02.228Z,27.2
2024-05-09T13:05:02.121Z,27.1
2024-05-09T13:06:01.900Z,27.1
2024-05-09T13:07:03.153Z,27.4
2024-05-09T13:08:01.532Z,27.4
2024-05-09T13:09:01.705Z,27.6
2024-05-09T13:10:01.456Z,27.1
2024-05-09T13:11:01.825Z,27.3
2024-05-09T13:12:01.629Z,26.6
2024-05-09T13:13:02.178Z,26.9
2024-05-09T13:14:01.296Z,27.2
2024-05-09T13:15:01.408Z,27.1
2024-05-09T13:16:02.319Z,27.2
2024-05-09T13:17:01.331Z,27.3
2024-05-09T13:18:03.179Z,27.4
2024-05-09T13:19:01.975Z,27.4
2024-05-09T13:20:03.299Z,27.4
2024-05-09T13:21:02.117Z,27.7
2024-05-09T13:22:01.954Z,27.4
2024-05-09T13:23:01.871Z,27
2024-05-09T13:24:02.175Z,26.8
2024-05-09T13:25:02.258Z,27.1
2024-05-09T13:26:02.166Z,27
2024-05-09T13:27:02.126Z,26.9
2024-05-09T13:28:02.044Z,26.8
2024-05-09T13:29:02.236Z,25.5
2024-05-09T13:30:01.908Z,25.1